Time;durP1;ratioP1;P1;durP2;ratioP2;P2;SDS_P1;SDS_P2;PMS_P1;PMS_P2;Temp;Humidity;BMP_temperature;BMP_pressure;BME280_temperature;BME280_humidity;BME280_pressure;Samples;Min_cycle;Max_cycle;Signal;HPM_P1;HPM_P2
2023/05/06 00:01:53;;;;;;;6.80;5.40;;;;;;;;;;5057887;28;20472;-69
2023/05/06 00:04:19;;;;;;;6.20;5.60;;;;;;;;;;5065154;28;20512;-68
2023/05/06 00:06:46;;;;;;;6.68;5.57;;;;;;;;;;5058724;28;20516;-69
2023/05/06 00:09:12;;;;;;;6.93;5.47;;;;;;;;;;5064399;28;20102;-68
2023/05/06 00:11:38;;;;;;;6.82;5.63;;;;;;;;;;5059935;28;20025;-68
2023/05/06 00:14:04;;;;;;;7.07;5.72;;;;;;;;;;5062195;28;20170;-68
2023/05/06 00:16:31;;;;;;;7.88;5.13;;;;;;;;;;5059560;28;20021;-69
2023/05/06 00:18:57;;;;;;;6.47;5.50;;;;;;;;;;5060591;28;20114;-68
2023/05/06 00:21:23;;;;;;;9.27;5.25;;;;;;;;;;5062632;28;20103;-68
2023/05/06 00:23:49;;;;;;;6.63;5.32;;;;;;;;;;5062410;28;20349;-69
2023/05/06 00:26:15;;;;;;;7.97;5.88;;;;;;;;;;5061731;28;20059;-68
2023/05/06 00:28:41;;;;;;;5.97;4.72;;;;;;;;;;5061191;28;20025;-69
2023/05/06 00:31:08;;;;;;;6.07;5.40;;;;;;;;;;5055245;28;20029;-67
2023/05/06 00:33:34;;;;;;;6.45;5.03;;;;;;;;;;5064436;28;20025;-68
2023/05/06 00:36:00;;;;;;;7.15;5.13;;;;;;;;;;5059415;28;20056;-68
2023/05/06 00:38:27;;;;;;;5.40;4.20;;;;;;;;;;5062330;28;20095;-69
2023/05/06 00:40:53;;;;;;;7.90;4.85;;;;;;;;;;5063098;28;20025;-70
2023/05/06 00:43:19;;;;;;;5.72;4.78;;;;;;;;;;5063600;28;20040;-71
2023/05/06 00:45:45;;;;;;;7.20;4.65;;;;;;;;;;5057096;28;20157;-68
2023/05/06 00:48:12;;;;;;;5.28;4.78;;;;;;;;;;5064254;28;20452;-69
2023/05/06 00:50:39;;;;;;;7.65;5.10;;;;;;;;;;5062861;28;20134;-69
2023/05/06 00:53:06;;;;;;;5.28;4.50;;;;;;;;;;5063637;28;20412;-72
2023/05/06 00:55:32;;;;;;;5.63;4.72;;;;;;;;;;5059511;28;20024;-68
2023/05/06 00:57:59;;;;;;;7.45;4.97;;;;;;;;;;5059521;28;20142;-68
2023/05/06 01:00:25;;;;;;;6.82;5.18;;;;;;;;;;5059843;28;20047;-67
2023/05/06 01:02:52;;;;;;;8.23;5.10;;;;;;;;;;5057525;28;20040;-72
2023/05/06 01:05:20;;;;;;;7.00;4.80;;;;;;;;;;5060737;28;20044;-68
2023/05/06 01:07:49;;;;;;;7.82;4.97;;;;;;;;;;5057360;28;20518;-70
2023/05/06 01:10:21;;;;;;;5.18;4.50;;;;;;;;;;5060680;28;20021;-68
2023/05/06 01:13:01;;;;;;;6.38;4.78;;;;;;;;;;5053051;28;20126;-68
2023/05/06 01:15:38;;;;;;;5.22;4.72;;;;;;;;;;5058379;28;20013;-68
2023/05/06 01:18:08;;;;;;;7.38;5.55;;;;;;;;;;5063354;28;20143;-68
2023/05/06 01:20:37;;;;;;;5.55;4.97;;;;;;;;;;5060300;28;20024;-68
2023/05/06 01:23:07;;;;;;;8.75;4.65;;;;;;;;;;5047753;28;20099;-67
2023/05/06 01:25:33;;;;;;;5.10;4.38;;;;;;;;;;5054953;28;20159;-71
2023/05/06 01:27:59;;;;;;;7.07;4.43;;;;;;;;;;5056443;28;20060;-68
2023/05/06 01:30:30;;;;;;;8.02;5.22;;;;;;;;;;5060869;28;20040;-69
2023/05/06 01:33:03;;;;;;;5.07;4.27;;;;;;;;;;5060240;28;20024;-68
2023/05/06 01:35:52;;;;;;;5.35;4.78;;;;;;;;;;5052694;28;20043;-68
2023/05/06 01:38:22;;;;;;;5.55;4.50;;;;;;;;;;5060278;28;20108;-69
2023/05/06 01:40:53;;;;;;;6.60;5.25;;;;;;;;;;5060853;28;20016;-71
2023/05/06 01:43:20;;;;;;;5.80;4.90;;;;;;;;;;5060429;28;20021;-68
2023/05/06 01:45:51;;;;;;;7.10;4.70;;;;;;;;;;5058000;28;20586;-69
2023/05/06 01:48:19;;;;;;;5.95;5.18;;;;;;;;;;5057294;28;20055;-71
2023/05/06 01:50:46;;;;;;;5.30;4.70;;;;;;;;;;5062051;28;20111;-72
2023/05/06 01:53:12;;;;;;;6.75;4.97;;;;;;;;;;5062215;28;20021;-68
2023/05/06 01:55:38;;;;;;;5.45;4.80;;;;;;;;;;5058165;28;20556;-68
2023/05/06 01:58:04;;;;;;;5.55;4.82;;;;;;;;;;5050561;28;20140;-67
2023/05/06 02:00:30;;;;;;;6.03;4.53;;;;;;;;;;5056292;28;20023;-68
2023/05/06 02:02:57;;;;;;;6.45;4.43;;;;;;;;;;5051807;28;20045;-68
2023/05/06 02:05:23;;;;;;;4.53;3.88;;;;;;;;;;5058610;28;20040;-70
2023/05/06 02:07:50;;;;;;;5.50;4.22;;;;;;;;;;5057546;28;20108;-71
2023/05/06 02:10:16;;;;;;;4.65;4.15;;;;;;;;;;5058590;28;20029;-70
2023/05/06 02:12:42;;;;;;;5.38;4.53;;;;;;;;;;5056908;28;20028;-68
2023/05/06 02:15:08;;;;;;;5.03;4.18;;;;;;;;;;5059111;28;20188;-68
2023/05/06 02:17:35;;;;;;;6.45;4.43;;;;;;;;;;5062239;28;20111;-68
2023/05/06 02:20:02;;;;;;;4.65;4.13;;;;;;;;;;5059093;28;20150;-68
2023/05/06 02:22:28;;;;;;;5.63;4.72;;;;;;;;;;5062238;28;20033;-70
2023/05/06 02:24:55;;;;;;;5.00;4.50;;;;;;;;;;5061000;28;20535;-68
2023/05/06 02:27:21;;;;;;;7.53;4.93;;;;;;;;;;5055479;28;20032;-69
2023/05/06 02:29:48;;;;;;;5.15;4.65;;;;;;;;;;5051469;28;20017;-68
2023/05/06 02:32:14;;;;;;;6.63;4.40;;;;;;;;;;5061323;28;20028;-69
2023/05/06 02:34:40;;;;;;;5.75;5.05;;;;;;;;;;5053997;28;20064;-68
2023/05/06 02:37:06;;;;;;;7.55;4.97;;;;;;;;;;5056069;28;20107;-70
2023/05/06 02:39:33;;;;;;;5.78;4.93;;;;;;;;;;5060442;28;20155;-68
2023/05/06 02:41:59;;;;;;;7.38;5.88;;;;;;;;;;5052042;28;20516;-68
2023/05/06 02:44:25;;;;;;;7.10;6.05;;;;;;;;;;5060540;28;20490;-68
2023/05/06 02:46:52;;;;;;;7.53;5.32;;;;;;;;;;5050114;28;20044;-68
2023/05/06 02:49:18;;;;;;;7.75;5.70;;;;;;;;;;5060445;28;20520;-69
2023/05/06 02:51:44;;;;;;;5.97;5.22;;;;;;;;;;5054960;28;20506;-68
2023/05/06 02:54:10;;;;;;;5.30;4.80;;;;;;;;;;5064449;28;20056;-68
2023/05/06 02:56:36;;;;;;;6.00;5.15;;;;;;;;;;5062342;28;20115;-69
2023/05/06 02:59:03;;;;;;;4.95;4.45;;;;;;;;;;5060461;28;20025;-69
2023/05/06 03:01:29;;;;;;;6.28;4.72;;;;;;;;;;5050777;28;20110;-68
2023/05/06 03:03:55;;;;;;;5.45;4.60;;;;;;;;;;5061192;28;20116;-68
2023/05/06 03:06:21;;;;;;;6.88;4.93;;;;;;;;;;5055384;28;20515;-69
2023/05/06 03:08:47;;;;;;;5.25;4.50;;;;;;;;;;5064648;28;20026;-69
2023/05/06 03:11:14;;;;;;;5.30;4.65;;;;;;;;;;5056521;28;20025;-72
2023/05/06 03:13:40;;;;;;;4.80;4.30;;;;;;;;;;5058943;28;20028;-68
2023/05/06 03:16:11;;;;;;;6.25;4.30;;;;;;;;;;5058398;28;20044;-69
2023/05/06 03:18:38;;;;;;;5.10;4.57;;;;;;;;;;5064260;28;20009;-70
2023/05/06 03:21:04;;;;;;;5.07;4.50;;;;;;;;;;5064448;28;20600;-68
2023/05/06 03:23:30;;;;;;;5.03;4.53;;;;;;;;;;5058662;28;20104;-68
2023/05/06 03:25:57;;;;;;;6.15;4.40;;;;;;;;;;5055442;28;20040;-69
2023/05/06 03:28:23;;;;;;;5.15;4.38;;;;;;;;;;5054816;28;20828;-68
2023/05/06 03:30:49;;;;;;;6.03;4.65;;;;;;;;;;5057547;28;20029;-69
2023/05/06 03:33:15;;;;;;;5.50;4.30;;;;;;;;;;5051211;28;20120;-68
2023/05/06 03:35:41;;;;;;;6.95;4.70;;;;;;;;;;5063172;28;20912;-68
2023/05/06 03:38:08;;;;;;;4.93;4.40;;;;;;;;;;5067575;28;20559;-68
2023/05/06 03:40:34;;;;;;;4.95;4.45;;;;;;;;;;5065985;28;20488;-70
2023/05/06 03:43:00;;;;;;;6.05;4.43;;;;;;;;;;5068549;28;20051;-70
2023/05/06 03:45:26;;;;;;;4.60;4.20;;;;;;;;;;5065280;28;20115;-68
2023/05/06 03:47:53;;;;;;;5.13;4.30;;;;;;;;;;5059317;28;20776;-71
2023/05/06 03:50:19;;;;;;;4.45;4.05;;;;;;;;;;5067520;28;20640;-69
2023/05/06 03:52:45;;;;;;;5.90;4.40;;;;;;;;;;5064562;28;20033;-68
2023/05/06 03:55:11;;;;;;;4.93;4.30;;;;;;;;;;5066851;28;20221;-70
2023/05/06 03:57:38;;;;;;;4.85;4.30;;;;;;;;;;5063052;28;20029;-68
2023/05/06 04:00:05;;;;;;;5.00;3.97;;;;;;;;;;5058461;28;20107;-68
2023/05/06 04:02:34;;;;;;;6.70;5.03;;;;;;;;;;5057929;28;20080;-71
2023/05/06 04:05:01;;;;;;;6.20;4.57;;;;;;;;;;5062607;28;20039;-69
2023/05/06 04:07:27;;;;;;;6.22;4.70;;;;;;;;;;5068093;28;20035;-68
2023/05/06 04:09:53;;;;;;;7.10;5.10;;;;;;;;;;5066653;28;20020;-68
2023/05/06 04:12:19;;;;;;;5.45;4.68;;;;;;;;;;5064476;28;20021;-68
2023/05/06 04:14:45;;;;;;;6.15;5.35;;;;;;;;;;5064408;28;20025;-68
2023/05/06 04:17:12;;;;;;;6.95;5.72;;;;;;;;;;5064474;28;20471;-69
2023/05/06 04:19:38;;;;;;;11.35;6.63;;;;;;;;;;5066982;28;20143;-70
2023/05/06 04:22:04;;;;;;;7.97;5.45;;;;;;;;;;5063867;28;20029;-68
2023/05/06 04:24:30;;;;;;;8.82;6.32;;;;;;;;;;5062030;28;20131;-68
2023/05/06 04:26:57;;;;;;;11.10;6.55;;;;;;;;;;5065026;28;20040;-68
2023/05/06 04:29:24;;;;;;;7.80;6.40;;;;;;;;;;5060912;28;20119;-68
2023/05/06 04:31:50;;;;;;;8.57;6.68;;;;;;;;;;5063537;28;20074;-69
2023/05/06 04:34:17;;;;;;;11.80;6.60;;;;;;;;;;5062964;28;20025;-68
2023/05/06 04:36:43;;;;;;;9.32;6.50;;;;;;;;;;5064433;28;20021;-68
2023/05/06 04:39:10;;;;;;;7.72;6.57;;;;;;;;;;5068657;28;20048;-68
2023/05/06 04:41:36;;;;;;;10.13;7.70;;;;;;;;;;5057900;28;20063;-68
2023/05/06 04:44:02;;;;;;;14.88;10.60;;;;;;;;;;5064837;28;20021;-68
2023/05/06 04:46:29;;;;;;;18.00;12.70;;;;;;;;;;5066805;28;20040;-67
2023/05/06 04:48:57;;;;;;;18.55;14.35;;;;;;;;;;5061372;28;20029;-68
2023/05/06 04:51:23;;;;;;;20.98;14.57;;;;;;;;;;5061642;28;20060;-70
2023/05/06 04:53:49;;;;;;;18.92;12.60;;;;;;;;;;5062018;28;20190;-73
2023/05/06 04:56:15;;;;;;;17.63;12.20;;;;;;;;;;5063738;28;20050;-68
2023/05/06 04:58:41;;;;;;;14.23;10.00;;;;;;;;;;5064983;28;20025;-68
2023/05/06 05:01:09;;;;;;;12.70;8.80;;;;;;;;;;5067708;28;20028;-69
2023/05/06 05:03:35;;;;;;;15.52;8.70;;;;;;;;;;5066425;28;20048;-69
2023/05/06 05:06:01;;;;;;;13.15;8.77;;;;;;;;;;5062134;28;20463;-68
2023/05/06 05:08:27;;;;;;;10.25;7.40;;;;;;;;;;5064167;28;20016;-71
2023/05/06 05:10:54;;;;;;;8.25;6.78;;;;;;;;;;5058816;28;20115;-68
2023/05/06 05:13:20;;;;;;;9.77;6.93;;;;;;;;;;5067750;28;20028;-68
2023/05/06 05:15:46;;;;;;;11.20;6.95;;;;;;;;;;5059924;28;20021;-68
2023/05/06 05:18:12;;;;;;;8.20;6.80;;;;;;;;;;5060036;28;20036;-68
2023/05/06 05:20:38;;;;;;;7.70;6.35;;;;;;;;;;5055491;28;20576;-68
2023/05/06 05:23:05;;;;;;;6.80;5.68;;;;;;;;;;5063025;28;20036;-68
2023/05/06 05:25:31;;;;;;;8.50;5.60;;;;;;;;;;5057899;28;20679;-68
2023/05/06 05:27:58;;;;;;;6.63;5.38;;;;;;;;;;5058838;28;20115;-68
2023/05/06 05:30:24;;;;;;;7.35;5.57;;;;;;;;;;5054925;28;20476;-68
2023/05/06 05:32:51;;;;;;;8.00;5.82;;;;;;;;;;5063678;28;20116;-68
2023/05/06 05:35:17;;;;;;;9.55;6.72;;;;;;;;;;5057149;28;20110;-69
2023/05/06 05:37:43;;;;;;;8.07;6.05;;;;;;;;;;5060858;28;20029;-70
2023/05/06 05:40:09;;;;;;;7.72;6.13;;;;;;;;;;5061189;28;20565;-69
2023/05/06 05:42:36;;;;;;;8.98;5.70;;;;;;;;;;5060197;28;21416;-69
2023/05/06 05:45:02;;;;;;;9.50;6.57;;;;;;;;;;5061917;28;20089;-68
2023/05/06 05:47:28;;;;;;;11.80;6.72;;;;;;;;;;5062500;28;20116;-71
2023/05/06 05:49:54;;;;;;;7.07;6.00;;;;;;;;;;5062655;28;20495;-72
2023/05/06 05:52:20;;;;;;;10.05;7.50;;;;;;;;;;5061893;28;20028;-68
2023/05/06 05:54:46;;;;;;;7.72;6.05;;;;;;;;;;5060670;28;20108;-69
2023/05/06 05:57:13;;;;;;;7.13;6.18;;;;;;;;;;5058401;28;20113;-68
2023/05/06 05:59:39;;;;;;;7.15;6.05;;;;;;;;;;5062557;28;20057;-68
2023/05/06 06:02:05;;;;;;;7.45;6.30;;;;;;;;;;5062235;28;20653;-68
2023/05/06 06:04:32;;;;;;;8.65;6.22;;;;;;;;;;5060544;28;20127;-68
2023/05/06 06:07:00;;;;;;;9.15;7.47;;;;;;;;;;5061838;28;20037;-68
2023/05/06 06:09:26;;;;;;;10.02;7.32;;;;;;;;;;5061900;28;20029;-68
2023/05/06 06:11:52;;;;;;;11.07;7.75;;;;;;;;;;5062527;28;20031;-71
2023/05/06 06:14:18;;;;;;;12.68;9.50;;;;;;;;;;5064257;28;20416;-69
2023/05/06 06:16:44;;;;;;;16.88;11.30;;;;;;;;;;5054650;28;20024;-69
2023/05/06 06:19:11;;;;;;;18.60;13.00;;;;;;;;;;5061121;28;20020;-68
2023/05/06 06:21:37;;;;;;;21.10;14.07;;;;;;;;;;5054398;28;20485;-69
2023/05/06 06:24:03;;;;;;;17.17;13.15;;;;;;;;;;5064128;28;20039;-72
2023/05/06 06:26:29;;;;;;;17.10;10.80;;;;;;;;;;5059005;28;20039;-69
2023/05/06 06:28:56;;;;;;;18.42;13.48;;;;;;;;;;5062209;28;20024;-71
2023/05/06 06:31:22;;;;;;;17.02;13.02;;;;;;;;;;5057444;28;20131;-69
2023/05/06 06:33:48;;;;;;;17.85;13.75;;;;;;;;;;5062317;28;20017;-69
2023/05/06 06:36:14;;;;;;;21.02;13.88;;;;;;;;;;5058413;28;20035;-69
2023/05/06 06:38:41;;;;;;;19.95;13.10;;;;;;;;;;5064494;28;20099;-69
2023/05/06 06:41:07;;;;;;;20.17;13.63;;;;;;;;;;5057578;28;20039;-69
2023/05/06 06:43:33;;;;;;;17.50;12.25;;;;;;;;;;5056299;28;20017;-68
2023/05/06 06:46:00;;;;;;;15.63;11.15;;;;;;;;;;5058797;28;20373;-69
2023/05/06 06:48:26;;;;;;;13.13;10.27;;;;;;;;;;5063353;28;20013;-68
2023/05/06 06:50:52;;;;;;;12.05;9.18;;;;;;;;;;5058675;28;20044;-68
2023/05/06 06:53:18;;;;;;;11.93;8.75;;;;;;;;;;5060939;28;20013;-67
2023/05/06 06:55:45;;;;;;;12.90;8.20;;;;;;;;;;5062595;28;20070;-69
2023/05/06 06:58:11;;;;;;;11.00;8.27;;;;;;;;;;5064697;28;20081;-68
2023/05/06 07:00:37;;;;;;;13.20;9.55;;;;;;;;;;5059521;28;20113;-74
2023/05/06 07:03:03;;;;;;;11.70;8.75;;;;;;;;;;5063150;28;20102;-73
2023/05/06 07:05:30;;;;;;;8.70;7.72;;;;;;;;;;5063931;28;20054;-68
2023/05/06 07:07:56;;;;;;;9.23;7.10;;;;;;;;;;5066037;28;20035;-68
2023/05/06 07:10:22;;;;;;;8.95;7.07;;;;;;;;;;5058620;28;20575;-71
2023/05/06 07:12:48;;;;;;;8.43;6.47;;;;;;;;;;5059673;28;20044;-67
2023/05/06 07:15:15;;;;;;;7.80;6.47;;;;;;;;;;5056811;28;20111;-67
2023/05/06 07:17:41;;;;;;;8.43;6.60;;;;;;;;;;5062458;28;20441;-68
2023/05/06 07:20:07;;;;;;;10.02;6.32;;;;;;;;;;5052301;28;20120;-69
2023/05/06 07:22:33;;;;;;;10.48;6.50;;;;;;;;;;5059777;28;20020;-67
2023/05/06 07:24:59;;;;;;;10.65;7.40;;;;;;;;;;5060062;28;20075;-68
2023/05/06 07:27:29;;;;;;;7.20;5.68;;;;;;;;;;5058684;28;20039;-67
2023/05/06 07:29:55;;;;;;;9.38;6.97;;;;;;;;;;5060870;28;20024;-68
2023/05/06 07:32:21;;;;;;;12.00;6.70;;;;;;;;;;5051693;28;20538;-67
2023/05/06 07:34:47;;;;;;;6.72;5.93;;;;;;;;;;5058609;28;20036;-68
2023/05/06 07:37:14;;;;;;;7.47;6.07;;;;;;;;;;5058944;28;20103;-67
2023/05/06 07:39:40;;;;;;;5.72;4.55;;;;;;;;;;5061324;28;20510;-68
2023/05/06 07:42:07;;;;;;;4.60;3.95;;;;;;;;;;5056687;28;20017;-71
2023/05/06 07:44:33;;;;;;;4.68;4.20;;;;;;;;;;5063699;28;20060;-67
2023/05/06 07:46:59;;;;;;;4.57;4.15;;;;;;;;;;5061457;28;20090;-67
2023/05/06 07:49:27;;;;;;;6.40;4.20;;;;;;;;;;5064524;28;20048;-68
2023/05/06 07:51:54;;;;;;;5.10;4.60;;;;;;;;;;5061520;28;20473;-67
2023/05/06 07:54:20;;;;;;;4.90;4.40;;;;;;;;;;5064092;28;20017;-69
2023/05/06 07:56:46;;;;;;;5.30;4.60;;;;;;;;;;5056542;28;20032;-67
2023/05/06 07:59:12;;;;;;;5.10;4.60;;;;;;;;;;5065441;28;20182;-67
2023/05/06 08:01:39;;;;;;;4.78;4.25;;;;;;;;;;5057408;28;20138;-67
2023/05/06 08:04:06;;;;;;;5.85;5.10;;;;;;;;;;5060846;28;20139;-67
2023/05/06 08:06:32;;;;;;;5.20;4.28;;;;;;;;;;5062252;28;20037;-67
2023/05/06 08:08:58;;;;;;;4.70;4.10;;;;;;;;;;5063970;28;20443;-67
2023/05/06 08:11:24;;;;;;;3.53;3.22;;;;;;;;;;5058648;28;20028;-67
2023/05/06 08:13:50;;;;;;;4.45;3.67;;;;;;;;;;5062261;28;20780;-68
2023/05/06 08:16:17;;;;;;;4.20;3.80;;;;;;;;;;5056582;28;20108;-67
2023/05/06 08:18:43;;;;;;;5.45;3.83;;;;;;;;;;5065393;28;20056;-67
2023/05/06 08:21:09;;;;;;;5.80;3.67;;;;;;;;;;5063345;28;20021;-69
2023/05/06 08:23:36;;;;;;;3.80;3.50;;;;;;;;;;5066410;28;20021;-68
2023/05/06 08:26:02;;;;;;;4.80;3.53;;;;;;;;;;5061317;28;20044;-68
2023/05/06 08:28:28;;;;;;;4.47;3.58;;;;;;;;;;5058314;28;20099;-67
2023/05/06 08:30:55;;;;;;;4.15;3.40;;;;;;;;;;5058719;28;20031;-68
2023/05/06 08:33:21;;;;;;;4.28;3.88;;;;;;;;;;5057779;28;20539;-67
2023/05/06 08:35:48;;;;;;;3.80;3.45;;;;;;;;;;5056691;28;20025;-67
2023/05/06 08:38:14;;;;;;;3.65;3.20;;;;;;;;;;5061821;28;20024;-69
2023/05/06 08:40:44;;;;;;;4.28;3.55;;;;;;;;;;5059050;28;20024;-67
2023/05/06 08:43:13;;;;;;;3.83;3.35;;;;;;;;;;5056491;28;20513;-70
2023/05/06 08:45:40;;;;;;;3.90;3.20;;;;;;;;;;5057426;28;20037;-69
2023/05/06 08:48:07;;;;;;;7.53;4.05;;;;;;;;;;5058623;28;20050;-67
2023/05/06 08:50:35;;;;;;;3.97;3.33;;;;;;;;;;5057430;28;20024;-67
2023/05/06 08:53:02;;;;;;;4.38;3.55;;;;;;;;;;5062474;28;20804;-70
2023/05/06 08:55:30;;;;;;;4.00;3.70;;;;;;;;;;5058013;28;20128;-67
2023/05/06 08:57:57;;;;;;;3.72;3.33;;;;;;;;;;5058474;28;20395;-67
2023/05/06 09:00:23;;;;;;;4.10;3.72;;;;;;;;;;5055860;28;20116;-68
2023/05/06 09:02:49;;;;;;;3.50;3.17;;;;;;;;;;5061491;28;20059;-68
2023/05/06 09:05:15;;;;;;;6.97;4.10;;;;;;;;;;5060978;28;20028;-68
2023/05/06 09:07:41;;;;;;;3.60;3.30;;;;;;;;;;5055547;28;20033;-67
2023/05/06 09:10:17;;;;;;;4.00;3.65;;;;;;;;;;5059960;28;20039;-69
2023/05/06 09:12:44;;;;;;;5.55;3.58;;;;;;;;;;5050501;28;20017;-70
2023/05/06 09:15:10;;;;;;;4.45;3.75;;;;;;;;;;5061321;28;20060;-71
2023/05/06 09:17:37;;;;;;;5.72;3.28;;;;;;;;;;5062522;28;20032;-69
2023/05/06 09:20:07;;;;;;;4.88;3.28;;;;;;;;;;5058419;28;20039;-70
2023/05/06 09:22:33;;;;;;;4.00;3.38;;;;;;;;;;5060940;28;20056;-68
2023/05/06 09:24:59;;;;;;;4.45;3.47;;;;;;;;;;5058330;28;20075;-68
2023/05/06 09:27:30;;;;;;;3.45;3.15;;;;;;;;;;5056759;28;20056;-68
2023/05/06 09:30:11;;;;;;;4.65;3.42;;;;;;;;;;5056612;28;20107;-68
2023/05/06 09:32:38;;;;;;;4.00;3.45;;;;;;;;;;5051494;28;20027;-68
2023/05/06 09:35:04;;;;;;;4.70;3.38;;;;;;;;;;5055255;28;20025;-68
2023/05/06 09:37:30;;;;;;;4.53;3.25;;;;;;;;;;5054433;28;20136;-69
2023/05/06 09:39:58;;;;;;;6.05;3.28;;;;;;;;;;5057830;28;20033;-69
2023/05/06 09:42:25;;;;;;;4.00;3.28;;;;;;;;;;5056307;28;20035;-69
2023/05/06 09:44:58;;;;;;;3.53;3.22;;;;;;;;;;5055523;28;20027;-68
2023/05/06 09:47:25;;;;;;;5.40;3.40;;;;;;;;;;5057411;28;20115;-68
2023/05/06 09:49:56;;;;;;;4.40;3.70;;;;;;;;;;5057366;28;20083;-68
2023/05/06 09:52:22;;;;;;;3.70;3.40;;;;;;;;;;5056997;28;20240;-68
2023/05/06 09:54:50;;;;;;;6.97;3.42;;;;;;;;;;5057723;28;20016;-71
2023/05/06 09:57:16;;;;;;;3.75;3.35;;;;;;;;;;5049074;28;20558;-68
2023/05/06 09:59:43;;;;;;;3.78;3.40;;;;;;;;;;5061836;28;20036;-68
2023/05/06 10:02:11;;;;;;;4.28;3.17;;;;;;;;;;5054328;28;20503;-70
2023/05/06 10:04:39;;;;;;;4.03;3.35;;;;;;;;;;5058076;28;20048;-70
2023/05/06 10:07:06;;;;;;;4.75;3.75;;;;;;;;;;5061196;28;20032;-68
2023/05/06 10:09:32;;;;;;;4.20;3.35;;;;;;;;;;5060480;28;20134;-68
2023/05/06 10:12:00;;;;;;;4.93;3.53;;;;;;;;;;5056600;28;20028;-72
2023/05/06 10:14:26;;;;;;;4.18;3.58;;;;;;;;;;5059327;28;20113;-68
2023/05/06 10:16:53;;;;;;;4.40;3.45;;;;;;;;;;5047508;28;20439;-68
2023/05/06 10:19:23;;;;;;;3.97;3.65;;;;;;;;;;5061088;28;20116;-70
2023/05/06 10:21:51;;;;;;;5.35;3.50;;;;;;;;;;5056700;28;20025;-68
2023/05/06 10:24:23;;;;;;;3.90;3.60;;;;;;;;;;5055930;28;20017;-68
2023/05/06 10:26:51;;;;;;;4.35;3.78;;;;;;;;;;5046550;28;20413;-69
2023/05/06 10:29:18;;;;;;;5.90;4.47;;;;;;;;;;5055727;28;20020;-69
2023/05/06 10:31:48;;;;;;;4.15;3.75;;;;;;;;;;5056343;28;20793;-70
2023/05/06 10:34:15;;;;;;;4.93;3.30;;;;;;;;;;5056529;28;20016;-77
2023/05/06 10:36:42;;;;;;;4.63;3.80;;;;;;;;;;5058730;28;20142;-75
2023/05/06 10:39:11;;;;;;;3.58;3.28;;;;;;;;;;5060586;28;20111;-76
2023/05/06 10:41:37;;;;;;;4.50;3.30;;;;;;;;;;5045969;28;20646;-70
2023/05/06 10:44:04;;;;;;;4.88;3.40;;;;;;;;;;5058559;28;20078;-68
2023/05/06 10:46:31;;;;;;;4.57;3.10;;;;;;;;;;5057080;28;20438;-74
2023/05/06 10:49:03;;;;;;;3.80;3.40;;;;;;;;;;5061386;28;20024;-73
2023/05/06 10:51:33;;;;;;;3.85;3.50;;;;;;;;;;5056059;28;20039;-73
2023/05/06 10:54:05;;;;;;;3.47;3.17;;;;;;;;;;5057915;28;20056;-69
2023/05/06 10:56:34;;;;;;;3.47;3.10;;;;;;;;;;5059481;28;20035;-75
2023/05/06 10:59:04;;;;;;;3.92;3.25;;;;;;;;;;5061120;28;20027;-74
2023/05/06 11:01:30;;;;;;;5.43;3.20;;;;;;;;;;5055972;28;20060;-77
2023/05/06 11:03:57;;;;;;;3.75;3.45;;;;;;;;;;5051840;28;20048;-71
2023/05/06 11:06:33;;;;;;;3.45;3.15;;;;;;;;;;5055059;28;20047;-75
2023/05/06 11:09:00;;;;;;;3.50;2.78;;;;;;;;;;5060477;28;20551;-74
2023/05/06 11:11:45;;;;;;;3.33;3.03;;;;;;;;;;5059081;28;20629;-76
2023/05/06 11:14:12;;;;;;;3.25;3.00;;;;;;;;;;5059161;28;20044;-73
2023/05/06 11:16:51;;;;;;;4.57;2.83;;;;;;;;;;5062940;28;20032;-78
2023/05/06 11:19:27;;;;;;;4.90;3.20;;;;;;;;;;5061816;28;20028;-77
2023/05/06 11:21:54;;;;;;;3.17;2.88;;;;;;;;;;5061992;28;20031;-72
2023/05/06 11:24:43;;;;;;;5.25;2.92;;;;;;;;;;5062672;28;20029;-71
2023/05/06 11:27:11;;;;;;;3.30;2.88;;;;;;;;;;5059881;28;20729;-76
2023/05/06 11:29:37;;;;;;;3.92;3.33;;;;;;;;;;5056378;28;20577;-77
2023/05/06 11:32:05;;;;;;;4.88;3.03;;;;;;;;;;5063492;28;20028;-76
2023/05/06 11:34:31;;;;;;;3.75;3.20;;;;;;;;;;5064366;28;20021;-73
2023/05/06 11:36:58;;;;;;;3.30;3.00;;;;;;;;;;5061720;28;20028;-73
2023/05/06 11:39:29;;;;;;;4.88;2.90;;;;;;;;;;5063489;28;20412;-77
2023/05/06 11:41:56;;;;;;;4.50;3.33;;;;;;;;;;5061272;28;20499;-76
2023/05/06 11:44:30;;;;;;;4.72;2.40;;;;;;;;;;5064978;28;20028;-74
2023/05/06 11:46:57;;;;;;;4.03;2.97;;;;;;;;;;5061170;28;20040;-74
2023/05/06 11:49:24;;;;;;;5.10;2.75;;;;;;;;;;5059036;28;20488;-72
2023/05/06 11:51:50;;;;;;;5.15;2.80;;;;;;;;;;5061522;28;20067;-74
2023/05/06 11:54:19;;;;;;;3.75;2.95;;;;;;;;;;5063357;28;20028;-75
2023/05/06 11:56:52;;;;;;;4.05;3.15;;;;;;;;;;5059902;28;20625;-75
2023/05/06 11:59:25;;;;;;;3.38;3.08;;;;;;;;;;5062801;28;20031;-72
2023/05/06 12:01:51;;;;;;;4.53;3.38;;;;;;;;;;5058499;28;20115;-75
2023/05/06 12:04:17;;;;;;;5.63;3.58;;;;;;;;;;5064240;28;20561;-74
2023/05/06 12:06:43;;;;;;;3.17;2.88;;;;;;;;;;5063296;28;20124;-75
2023/05/06 12:09:11;;;;;;;3.90;3.50;;;;;;;;;;5065357;28;20051;-74
2023/05/06 12:11:38;;;;;;;4.05;3.67;;;;;;;;;;5061522;28;20032;-71
2023/05/06 12:14:05;;;;;;;3.60;3.30;;;;;;;;;;5065420;28;20090;-73
2023/05/06 12:16:32;;;;;;;4.00;3.60;;;;;;;;;;5061869;28;20033;-71
2023/05/06 12:18:58;;;;;;;4.90;3.80;;;;;;;;;;5065376;28;20569;-72
2023/05/06 12:21:25;;;;;;;4.43;3.55;;;;;;;;;;5060803;28;20044;-73
2023/05/06 12:23:58;;;;;;;4.00;3.70;;;;;;;;;;5055389;28;20048;-73
2023/05/06 12:26:26;;;;;;;3.80;3.38;;;;;;;;;;5061333;28;20377;-74
2023/05/06 12:29:08;;;;;;;4.03;3.45;;;;;;;;;;5060559;28;20082;-74
2023/05/06 12:31:34;;;;;;;3.90;3.50;;;;;;;;;;5056304;28;20034;-73
2023/05/06 12:34:00;;;;;;;4.28;3.50;;;;;;;;;;5062918;28;20059;-76
2023/05/06 12:36:27;;;;;;;3.92;3.53;;;;;;;;;;5053977;28;20025;-75
2023/05/06 12:38:54;;;;;;;3.63;3.30;;;;;;;;;;5064359;28;20024;-73
2023/05/06 12:41:21;;;;;;;4.50;3.70;;;;;;;;;;5049586;28;20063;-71
2023/05/06 12:43:47;;;;;;;5.95;3.67;;;;;;;;;;5059775;28;20024;-75
2023/05/06 12:46:15;;;;;;;4.75;4.20;;;;;;;;;;5060562;28;20044;-75
2023/05/06 12:48:41;;;;;;;4.10;3.58;;;;;;;;;;5061698;28;20021;-75
2023/05/06 12:51:18;;;;;;;5.80;4.05;;;;;;;;;;5060997;28;20024;-74
2023/05/06 12:53:44;;;;;;;5.28;3.55;;;;;;;;;;5058878;28;20028;-76
2023/05/06 12:56:10;;;;;;;4.53;3.88;;;;;;;;;;5057531;28;20033;-77
2023/05/06 12:58:38;;;;;;;3.90;3.40;;;;;;;;;;5055149;28;20028;-76
2023/05/06 13:01:05;;;;;;;5.13;3.55;;;;;;;;;;5060205;28;20044;-75
2023/05/06 13:03:31;;;;;;;7.35;4.32;;;;;;;;;;5062048;28;20037;-74
2023/05/06 13:05:58;;;;;;;7.57;3.97;;;;;;;;;;5058296;28;20032;-75
2023/05/06 13:08:24;;;;;;;4.30;3.70;;;;;;;;;;5062364;28;20133;-74
2023/05/06 13:10:50;;;;;;;3.33;3.03;;;;;;;;;;5059479;28;20671;-73
2023/05/06 13:13:16;;;;;;;4.45;3.58;;;;;;;;;;5061455;28;20040;-73
2023/05/06 13:15:43;;;;;;;4.10;3.70;;;;;;;;;;5055728;28;20121;-72
2023/05/06 13:18:09;;;;;;;4.90;3.60;;;;;;;;;;5059867;28;20020;-74
2023/05/06 13:20:35;;;;;;;4.50;4.10;;;;;;;;;;5058622;28;20067;-73
2023/05/06 13:23:02;;;;;;;5.10;3.55;;;;;;;;;;5059815;28;20524;-74
2023/05/06 13:25:28;;;;;;;5.32;3.35;;;;;;;;;;5056401;28;20435;-73
2023/05/06 13:27:55;;;;;;;4.57;3.70;;;;;;;;;;5055960;28;20027;-75
2023/05/06 13:30:21;;;;;;;4.05;3.67;;;;;;;;;;5057471;28;20132;-73
2023/05/06 13:32:47;;;;;;;4.28;3.85;;;;;;;;;;5058443;28;20016;-74
2023/05/06 13:35:13;;;;;;;6.05;3.55;;;;;;;;;;5058564;28;20024;-72
2023/05/06 13:37:39;;;;;;;4.25;3.45;;;;;;;;;;5050890;28;20068;-72
2023/05/06 13:40:06;;;;;;;4.40;3.50;;;;;;;;;;5057590;28;20125;-72
2023/05/06 13:42:33;;;;;;;5.88;3.58;;;;;;;;;;5055840;28;20025;-73
2023/05/06 13:44:59;;;;;;;4.10;3.70;;;;;;;;;;5055839;28;20112;-72
2023/05/06 13:47:25;;;;;;;4.30;3.38;;;;;;;;;;5056827;28;20498;-73
2023/05/06 13:49:51;;;;;;;4.82;3.70;;;;;;;;;;5056323;28;20009;-74
2023/05/06 13:52:18;;;;;;;4.00;3.60;;;;;;;;;;5046758;28;20225;-71
2023/05/06 13:54:45;;;;;;;4.10;3.70;;;;;;;;;;5055821;28;20025;-73
2023/05/06 13:57:11;;;;;;;3.53;3.20;;;;;;;;;;5056875;28;20085;-68
2023/05/06 13:59:37;;;;;;;4.18;3.60;;;;;;;;;;5061435;28;20103;-73
2023/05/06 14:02:04;;;;;;;3.72;3.42;;;;;;;;;;5058526;28;20221;-73
2023/05/06 14:04:30;;;;;;;3.83;3.53;;;;;;;;;;5059544;28;20496;-73
2023/05/06 14:06:58;;;;;;;4.47;3.58;;;;;;;;;;5053333;28;20105;-73
2023/05/06 14:09:24;;;;;;;6.15;3.67;;;;;;;;;;5060483;28;20573;-71
2023/05/06 14:11:50;;;;;;;4.22;3.83;;;;;;;;;;5054169;28;20025;-71
2023/05/06 14:14:16;;;;;;;4.38;3.97;;;;;;;;;;5054597;28;20104;-74
2023/05/06 14:16:43;;;;;;;4.65;3.90;;;;;;;;;;5053888;28;20036;-73
2023/05/06 14:19:09;;;;;;;5.50;4.05;;;;;;;;;;5053009;28;20630;-74
2023/05/06 14:21:35;;;;;;;5.25;3.70;;;;;;;;;;5051834;28;20103;-73
2023/05/06 14:24:02;;;;;;;3.58;3.28;;;;;;;;;;5057341;28;20096;-73
2023/05/06 14:26:28;;;;;;;4.63;3.58;;;;;;;;;;5058521;28;20036;-74
2023/05/06 14:28:54;;;;;;;3.78;3.40;;;;;;;;;;5063126;28;20024;-71
2023/05/06 14:31:20;;;;;;;6.53;3.90;;;;;;;;;;5059648;28;20109;-68
2023/05/06 14:33:47;;;;;;;4.38;3.90;;;;;;;;;;5064166;28;20024;-72
2023/05/06 14:36:17;;;;;;;4.38;3.90;;;;;;;;;;5058167;28;20202;-68
2023/05/06 14:38:43;;;;;;;4.72;4.25;;;;;;;;;;5058515;28;20024;-68
2023/05/06 14:41:09;;;;;;;4.03;3.60;;;;;;;;;;5056895;28;20627;-73